Time;durP1;ratioP1;P1;durP2;ratioP2;P2;SDS_P1;SDS_P2;PMS_P1;PMS_P2;Temp;Humidity;BMP_temperature;BMP_pressure;BME280_temperature;BME280_humidity;BME280_pressure;Samples;Min_cycle;Max_cycle;Signal;HPM_P1;HPM_P2
2022/11/29 00:01:26;;;;;;;39.03;18.63;;;9.10;99.90;;;;;;5093540;28;20267;-72
2022/11/29 00:03:53;;;;;;;43.07;17.80;;;9.10;99.90;;;;;;5095021;28;20243;-71
2022/11/29 00:06:20;;;;;;;48.80;18.53;;;9.20;99.90;;;;;;5094928;28;20168;-72
2022/11/29 00:08:47;;;;;;;39.47;17.97;;;9.20;99.90;;;;;;5094997;28;20172;-70
2022/11/29 00:14:08;;;;;;;43.07;17.30;;;9.10;99.90;;;;;;5094997;28;20184;-72
2022/11/29 00:16:33;;;;;;;31.90;17.73;;;9.10;99.90;;;;;;5094440;28;20210;-71
2022/11/29 00:18:59;;;;;;;35.33;18.57;;;9.20;99.90;;;;;;5094774;28;20171;-71
2022/11/29 00:21:25;;;;;;;41.27;17.70;;;9.10;99.90;;;;;;5094575;28;20677;-71
2022/11/29 00:23:50;;;;;;;37.87;18.03;;;9.00;99.90;;;;;;5094437;28;20255;-71
2022/11/29 00:26:16;;;;;;;34.73;18.00;;;9.00;99.90;;;;;;5094671;28;20213;-72
2022/11/29 00:28:41;;;;;;;41.00;19.30;;;9.00;99.90;;;;;;5094756;28;20175;-71
2022/11/29 00:31:19;;;;;;;37.23;17.97;;;9.00;99.90;;;;;;5093982;28;20534;-70
2022/11/29 00:33:45;;;;;;;37.03;18.00;;;8.90;99.90;;;;;;5092789;28;20225;-71
2022/11/29 00:36:11;;;;;;;36.60;19.03;;;8.80;99.90;;;;;;5094373;28;20164;-72
2022/11/29 00:38:37;;;;;;;39.30;18.70;;;8.80;99.90;;;;;;5094303;28;20609;-72
2022/11/29 00:41:04;;;;;;;41.13;18.53;;;8.80;99.90;;;;;;5094221;28;20189;-71
2022/11/29 00:43:29;;;;;;;35.63;18.67;;;8.80;99.90;;;;;;5093952;28;20231;-71
2022/11/29 00:45:55;;;;;;;39.93;20.07;;;8.90;99.90;;;;;;5093991;28;20179;-71
2022/11/29 00:48:24;;;;;;;39.93;19.63;;;8.80;99.90;;;;;;5094201;28;20192;-73
2022/11/29 00:50:49;;;;;;;42.10;19.63;;;8.90;99.90;;;;;;5094047;28;20522;-71
2022/11/29 00:53:15;;;;;;;39.93;19.53;;;8.80;99.90;;;;;;5094056;28;20180;-72
2022/11/29 00:55:42;;;;;;;44.90;21.23;;;8.80;99.90;;;;;;5094163;28;20168;-72
2022/11/29 00:58:08;;;;;;;47.73;21.03;;;8.90;99.90;;;;;;5093473;28;20257;-71
2022/11/29 01:00:37;;;;;;;43.00;21.10;;;8.80;99.90;;;;;;5093805;28;20180;-72
2022/11/29 01:03:02;;;;;;;37.83;20.50;;;8.80;99.90;;;;;;5093920;28;20254;-73
2022/11/29 01:05:30;;;;;;;43.10;19.50;;;8.80;99.90;;;;;;5093052;28;20586;-71
2022/11/29 01:07:55;;;;;;;39.10;20.17;;;8.80;99.90;;;;;;5093804;28;20175;-71
2022/11/29 01:10:21;;;;;;;38.30;19.03;;;8.80;99.90;;;;;;5093725;28;20255;-70
2022/11/29 01:12:47;;;;;;;37.83;19.13;;;8.80;99.90;;;;;;5093301;28;20183;-71
2022/11/29 01:15:13;;;;;;;40.03;20.07;;;8.80;99.90;;;;;;5093850;28;20529;-71
2022/11/29 01:17:39;;;;;;;38.10;18.93;;;8.70;99.90;;;;;;5093701;28;20208;-73
2022/11/29 01:20:06;;;;;;;34.47;18.03;;;8.70;99.90;;;;;;5093544;28;20179;-70
2022/11/29 01:22:36;;;;;;;31.87;17.63;;;8.60;99.90;;;;;;5093497;28;20183;-71
2022/11/29 01:25:03;;;;;;;33.27;17.73;;;8.60;99.90;;;;;;5093703;28;20176;-71
2022/11/29 01:27:29;;;;;;;41.47;17.43;;;8.60;99.90;;;;;;5092972;28;20682;-71
2022/11/29 01:30:00;;;;;;;33.67;18.47;;;8.60;99.90;;;;;;5093765;28;20301;-70
2022/11/29 01:32:26;;;;;;;36.53;17.97;;;8.60;99.90;;;;;;5094090;28;20184;-71
2022/11/29 01:34:52;;;;;;;35.50;18.67;;;8.60;99.90;;;;;;5113684;28;20194;-70
2022/11/29 01:37:17;;;;;;;34.57;18.77;;;8.60;99.90;;;;;;5113478;28;20210;-70
2022/11/29 01:39:43;;;;;;;31.27;17.73;;;8.50;99.90;;;;;;5094150;28;20179;-71
2022/11/29 01:42:15;;;;;;;32.23;18.63;;;8.50;99.90;;;;;;5113086;28;20271;-71
2022/11/29 01:44:44;;;;;;;33.30;17.97;;;8.40;99.90;;;;;;5113457;28;20691;-70
2022/11/29 01:47:17;;;;;;;41.10;18.43;;;8.30;99.90;;;;;;5095065;28;20791;-72
2022/11/29 01:49:48;;;;;;;41.20;19.90;;;8.30;99.90;;;;;;5113440;28;20258;-71
2022/11/29 01:52:19;;;;;;;35.70;19.70;;;8.30;99.90;;;;;;5113319;28;20162;-71
2022/11/29 01:54:51;;;;;;;34.00;18.37;;;8.20;99.90;;;;;;5113313;28;20231;-71
2022/11/29 01:57:18;;;;;;;35.13;20.73;;;8.10;99.90;;;;;;5094478;28;20207;-71
2022/11/29 01:59:48;;;;;;;36.53;20.10;;;8.10;99.90;;;;;;5113238;28;20167;-70
2022/11/29 02:02:22;;;;;;;42.87;21.53;;;8.00;99.90;;;;;;5113545;28;20191;-70
2022/11/29 02:04:48;;;;;;;38.30;23.77;;;8.00;99.90;;;;;;5113294;28;20170;-72
2022/11/29 02:07:17;;;;;;;36.70;22.30;;;8.00;99.90;;;;;;5113352;28;20167;-71
2022/11/29 02:09:43;;;;;;;36.67;22.53;;;7.90;99.90;;;;;;5113469;28;20258;-70
2022/11/29 02:12:22;;;;;;;32.73;20.33;;;7.90;99.90;;;;;;5113204;28;20199;-71
2022/11/29 02:14:56;;;;;;;34.53;21.90;;;7.70;99.90;;;;;;5113277;28;20175;-71
2022/11/29 02:17:31;;;;;;;38.60;22.67;;;7.70;99.90;;;;;;5116983;28;20206;-71
2022/11/29 02:20:18;;;;;;;35.90;20.87;;;7.70;99.90;;;;;;5117306;28;20186;-71
2022/11/29 02:23:23;;;;;;;45.40;22.60;;;7.70;99.90;;;;;;5099026;28;20281;-70
2022/11/29 02:26:19;;;;;;;36.63;21.73;;;7.60;99.90;;;;;;5077769;28;20214;-71
2022/11/29 02:29:25;;;;;;;38.07;21.57;;;7.50;99.90;;;;;;5117292;28;20211;-70
2022/11/29 02:32:13;;;;;;;33.73;21.43;;;7.40;99.90;;;;;;5098773;28;20508;-71
2022/11/29 02:34:41;;;;;;;38.77;21.93;;;7.30;99.90;;;;;;5116794;28;20250;-70
2022/11/29 02:37:13;;;;;;;36.53;22.13;;;7.30;99.90;;;;;;5098639;28;20388;-71
2022/11/29 02:39:52;;;;;;;33.97;21.63;;;7.40;99.90;;;;;;5116935;28;20250;-70
2022/11/29 02:42:50;;;;;;;41.77;23.60;;;7.40;99.90;;;;;;5116806;28;20179;-70
2022/11/29 02:45:35;;;;;;;41.60;22.60;;;7.40;99.90;;;;;;5116990;28;20171;-70
2022/11/29 02:48:14;;;;;;;40.17;22.63;;;7.40;99.90;;;;;;5098461;28;20229;-70
2022/11/29 02:51:04;;;;;;;38.37;23.43;;;7.30;99.90;;;;;;5116795;28;20167;-69
2022/11/29 02:53:54;;;;;;;43.43;22.50;;;7.20;99.90;;;;;;5116956;28;20254;-69
2022/11/29 02:56:33;;;;;;;34.87;21.53;;;7.10;99.90;;;;;;5116651;28;20243;-70
2022/11/29 02:59:06;;;;;;;40.47;21.77;;;7.10;99.90;;;;;;5116681;28;20258;-69
2022/11/29 03:01:35;;;;;;;32.60;21.60;;;7.00;99.90;;;;;;5116611;28;20175;-70
2022/11/29 03:04:31;;;;;;;31.60;21.97;;;7.00;99.90;;;;;;5116536;28;20175;-70
2022/11/29 03:07:25;;;;;;;33.50;21.50;;;7.10;99.90;;;;;;5116524;28;20172;-70
2022/11/29 03:10:09;;;;;;;43.80;23.07;;;7.30;99.90;;;;;;5116179;28;20653;-70
2022/11/29 03:12:42;;;;;;;31.83;20.07;;;7.50;99.90;;;;;;5116635;28;20271;-70
2022/11/29 03:15:14;;;;;;;30.20;19.83;;;7.60;99.90;;;;;;5116542;28;20163;-70
2022/11/29 03:17:45;;;;;;;32.33;22.43;;;7.70;99.90;;;;;;5116384;28;20211;-69
2022/11/29 03:20:36;;;;;;;32.23;19.97;;;7.80;99.90;;;;;;5116233;28;20169;-69
2022/11/29 03:23:31;;;;;;;31.97;21.47;;;7.80;99.90;;;;;;5097696;28;20259;-70
2022/11/29 03:26:07;;;;;;;32.27;19.47;;;8.00;99.90;;;;;;5097883;28;20574;-70
2022/11/29 03:28:46;;;;;;;31.27;19.20;;;7.90;99.90;;;;;;5115252;28;20527;-70
2022/11/29 03:31:32;;;;;;;30.17;20.77;;;8.00;99.90;;;;;;5115977;28;20164;-70
2022/11/29 03:34:03;;;;;;;30.13;18.77;;;8.00;99.90;;;;;;5115566;28;20682;-70
2022/11/29 03:36:49;;;;;;;32.37;19.33;;;8.00;99.90;;;;;;5115902;28;20207;-70
2022/11/29 03:39:29;;;;;;;29.07;18.93;;;8.10;99.90;;;;;;5115462;28;20351;-70
2022/11/29 03:42:01;;;;;;;27.40;18.20;;;8.20;99.90;;;;;;5097395;28;20175;-70
2022/11/29 03:44:34;;;;;;;26.13;18.13;;;8.00;99.90;;;;;;5115647;28;20167;-69
2022/11/29 03:47:07;;;;;;;25.03;17.70;;;7.90;99.90;;;;;;5115556;28;20176;-70
2022/11/29 03:50:01;;;;;;;28.10;18.73;;;8.00;99.90;;;;;;5115514;28;20171;-70
2022/11/29 03:52:30;;;;;;;31.00;18.33;;;8.20;99.90;;;;;;5114928;28;20668;-69
2022/11/29 03:55:07;;;;;;;26.27;17.93;;;8.20;99.90;;;;;;5115613;28;20183;-70
2022/11/29 03:57:47;;;;;;;28.10;18.67;;;8.30;99.90;;;;;;5115201;28;20246;-70
2022/11/29 04:00:14;;;;;;;27.03;17.00;;;8.40;99.90;;;;;;5115269;28;20171;-70
2022/11/29 04:03:13;;;;;;;26.27;16.67;;;8.50;99.90;;;;;;5115297;28;20182;-70
2022/11/29 04:06:03;;;;;;;28.17;16.53;;;8.50;99.90;;;;;;5115280;28;20167;-69
2022/11/29 04:08:55;;;;;;;22.77;16.07;;;8.40;99.90;;;;;;5115070;28;20191;-69
2022/11/29 04:11:26;;;;;;;25.63;15.37;;;8.40;99.90;;;;;;5115181;28;20202;-69
2022/11/29 04:14:29;;;;;;;23.00;15.63;;;8.50;99.90;;;;;;5096896;28;20289;-70
2022/11/29 04:17:57;;;;;;;24.10;15.23;;;8.40;99.90;;;;;;5115045;28;20251;-70
2022/11/29 04:20:28;;;;;;;28.33;15.27;;;8.30;99.90;;;;;;5012434;28;20195;-70
2022/11/29 04:23:12;;;;;;;31.07;15.93;;;8.30;99.90;;;;;;5012129;28;20257;-69
2022/11/29 04:26:10;;;;;;;23.87;15.30;;;8.30;99.90;;;;;;5093686;28;20191;-70
2022/11/29 04:28:47;;;;;;;22.90;15.27;;;8.50;99.90;;;;;;5012308;28;20187;-69
2022/11/29 04:31:32;;;;;;;24.90;15.07;;;8.60;99.90;;;;;;4995915;28;20614;-71
2022/11/29 04:34:25;;;;;;;24.10;14.83;;;8.50;99.90;;;;;;4995313;28;20237;-69
2022/11/29 04:37:28;;;;;;;28.77;15.57;;;8.40;99.90;;;;;;5011754;28;20245;-70
2022/11/29 04:40:01;;;;;;;27.07;15.83;;;8.40;99.90;;;;;;5011393;28;20213;-69
2022/11/29 04:42:55;;;;;;;25.83;16.13;;;8.50;99.90;;;;;;4995527;28;20634;-70
2022/11/29 04:45:40;;;;;;;24.83;15.67;;;8.60;99.90;;;;;;5011754;28;20182;-69
2022/11/29 04:48:42;;;;;;;27.43;15.63;;;8.60;99.90;;;;;;5012208;28;20677;-70
2022/11/29 04:51:58;;;;;;;28.10;15.30;;;8.60;99.90;;;;;;5011724;28;20832;-68
2022/11/29 04:55:00;;;;;;;22.93;15.10;;;8.60;99.90;;;;;;4953488;28;20756;-70
2022/11/29 04:57:50;;;;;;;28.37;15.03;;;8.60;99.90;;;;;;4924796;28;20224;-69
2022/11/29 05:00:20;;;;;;;24.23;15.23;;;8.70;99.90;;;;;;4953594;29;20173;-70
2022/11/29 05:03:18;;;;;;;22.87;14.57;;;8.70;99.90;;;;;;4953572;28;20176;-68
2022/11/29 05:05:57;;;;;;;24.90;15.77;;;8.70;99.90;;;;;;5033273;28;20208;-69
2022/11/29 05:08:50;;;;;;;24.83;16.10;;;8.80;99.90;;;;;;5051377;28;20696;-69
2022/11/29 05:11:53;;;;;;;19.30;14.70;;;8.90;99.90;;;;;;5034132;28;20192;-68
2022/11/29 05:14:25;;;;;;;24.97;15.23;;;9.00;99.90;;;;;;5051340;28;20173;-69
2022/11/29 05:17:30;;;;;;;23.70;14.83;;;9.00;99.90;;;;;;5051071;28;20197;-69
2022/11/29 05:20:19;;;;;;;23.10;14.87;;;9.00;99.90;;;;;;5050985;28;20289;-69
2022/11/29 05:23:13;;;;;;;20.97;14.20;;;8.90;99.90;;;;;;5050861;28;20185;-69
2022/11/29 05:25:55;;;;;;;22.27;14.27;;;9.00;99.90;;;;;;5015571;28;20719;-70
2022/11/29 05:28:30;;;;;;;21.27;14.20;;;9.00;99.90;;;;;;5050936;28;20165;-70
2022/11/29 05:31:22;;;;;;;19.47;14.10;;;8.90;99.90;;;;;;5088095;28;20182;-70
2022/11/29 05:34:16;;;;;;;19.57;12.77;;;8.90;99.90;;;;;;5070471;28;20251;-69
2022/11/29 05:37:03;;;;;;;22.23;13.23;;;8.60;99.90;;;;;;5092938;28;20206;-70
2022/11/29 05:39:41;;;;;;;21.20;13.43;;;8.60;99.90;;;;;;5092625;28;20164;-70
2022/11/29 05:42:25;;;;;;;21.60;13.97;;;8.50;99.90;;;;;;5092757;28;20195;-71
2022/11/29 05:44:58;;;;;;;23.47;13.60;;;8.60;99.90;;;;;;5092836;28;20254;-70
2022/11/29 05:47:40;;;;;;;26.00;14.37;;;8.60;99.90;;;;;;5092849;28;20202;-69
2022/11/29 05:50:34;;;;;;;20.10;12.93;;;8.60;99.90;;;;;;5091812;28;20187;-71
2022/11/29 05:53:38;;;;;;;22.17;13.77;;;8.80;99.90;;;;;;5092677;28;20180;-71
2022/11/29 05:56:17;;;;;;;18.23;13.17;;;8.70;99.90;;;;;;5063236;28;20175;-69
2022/11/29 05:58:58;;;;;;;16.67;13.27;;;8.60;99.90;;;;;;5092868;28;20210;-70
2022/11/29 06:01:28;;;;;;;22.97;13.23;;;8.60;99.90;;;;;;5092635;28;20178;-70
2022/11/29 06:04:21;;;;;;;21.23;13.03;;;8.50;99.90;;;;;;5091795;28;20251;-70
2022/11/29 06:07:10;;;;;;;23.20;13.90;;;8.60;99.90;;;;;;5091058;28;20168;-70
2022/11/29 06:10:01;;;;;;;17.90;13.07;;;8.60;99.90;;;;;;5092644;28;20178;-70
2022/11/29 06:12:29;;;;;;;27.27;12.97;;;8.40;99.90;;;;;;5082806;28;20191;-70
2022/11/29 06:15:16;;;;;;;24.70;13.80;;;8.40;99.90;;;;;;5092064;28;20163;-71
2022/11/29 06:17:51;;;;;;;23.73;14.20;;;8.20;99.90;;;;;;5091781;28;20199;-70
2022/11/29 06:20:44;;;;;;;20.27;14.13;;;8.20;99.90;;;;;;5092248;28;20178;-71
2022/11/29 06:23:19;;;;;;;22.63;14.50;;;8.20;99.90;;;;;;5092284;28;20176;-71
2022/11/29 06:26:23;;;;;;;25.37;15.10;;;8.40;99.90;;;;;;5092162;28;20619;-71
2022/11/29 06:29:11;;;;;;;23.50;14.57;;;8.50;99.90;;;;;;5089516;28;20241;-70
2022/11/29 06:31:45;;;;;;;20.63;13.97;;;8.60;99.90;;;;;;5053981;28;20180;-71
2022/11/29 06:34:28;;;;;;;21.17;15.50;;;8.70;99.90;;;;;;5107192;28;20309;-72
2022/11/29 06:36:59;;;;;;;21.57;13.80;;;8.70;99.90;;;;;;5093801;28;20294;-70
2022/11/29 06:39:25;;;;;;;23.67;14.83;;;8.80;99.90;;;;;;5112417;28;20647;-71
2022/11/29 06:41:51;;;;;;;21.90;14.23;;;8.70;99.90;;;;;;5111503;28;20225;-71
2022/11/29 06:44:17;;;;;;;20.30;14.17;;;8.70;99.90;;;;;;5112222;28;20189;-71
2022/11/29 06:46:45;;;;;;;26.40;15.03;;;8.80;99.90;;;;;;5111682;28;20534;-71
2022/11/29 06:49:53;;;;;;;28.40;15.60;;;8.70;99.90;;;;;;5112121;28;20172;-70
2022/11/29 06:52:36;;;;;;;29.87;14.43;;;8.70;99.90;;;;;;5009523;28;20283;-71
2022/11/29 06:55:11;;;;;;;94.47;19.33;;;8.60;99.90;;;;;;5008901;28;20217;-70
2022/11/29 06:57:58;;;;;;;210.73;31.40;;;8.60;99.90;;;;;;5009549;28;20326;-71
2022/11/29 07:00:51;;;;;;;111.20;22.20;;;8.50;99.90;;;;;;5009404;28;20253;-71
2022/11/29 07:03:41;;;;;;;91.83;19.13;;;8.40;99.90;;;;;;4995038;28;20183;-71
2022/11/29 07:06:34;;;;;;;76.77;17.93;;;8.50;99.90;;;;;;5014102;28;20182;-71
2022/11/29 07:09:24;;;;;;;82.90;18.80;;;8.50;99.90;;;;;;5013056;28;20690;-70
2022/11/29 07:11:50;;;;;;;54.33;17.60;;;8.50;99.90;;;;;;5013202;28;20183;-71
2022/11/29 07:14:18;;;;;;;56.70;18.00;;;8.60;99.90;;;;;;4996875;28;20202;-71
2022/11/29 07:17:09;;;;;;;31.23;16.40;;;8.60;99.90;;;;;;5013197;28;20198;-71
2022/11/29 07:19:40;;;;;;;24.80;14.80;;;8.60;99.90;;;;;;5012414;28;20170;-71
2022/11/29 07:22:33;;;;;;;25.37;14.50;;;8.60;99.90;;;;;;5012446;28;20182;-72
2022/11/29 07:25:10;;;;;;;31.00;15.00;;;8.60;99.90;;;;;;5011626;28;20179;-70
2022/11/29 07:28:38;;;;;;;41.00;16.87;;;8.70;99.90;;;;;;5049633;28;20589;-71
2022/11/29 07:31:42;;;;;;;86.47;20.87;;;8.70;99.90;;;;;;5011563;28;20213;-71
2022/11/29 07:34:16;;;;;;;39.87;16.93;;;8.60;99.90;;;;;;5114135;28;20322;-71
2022/11/29 07:37:03;;;;;;;112.93;22.87;;;8.50;99.90;;;;;;5114551;28;20186;-71
2022/11/29 07:39:41;;;;;;;33.37;15.60;;;8.40;99.90;;;;;;5114218;28;20182;-72
2022/11/29 07:42:21;;;;;;;26.90;14.33;;;8.40;99.90;;;;;;5095153;28;20195;-72
2022/11/29 07:45:12;;;;;;;26.40;15.03;;;8.30;99.90;;;;;;5114104;28;20171;-71
2022/11/29 07:47:40;;;;;;;24.77;14.30;;;8.20;99.90;;;;;;5096650;28;20191;-71
2022/11/29 07:50:06;;;;;;;23.97;14.13;;;8.10;99.90;;;;;;5114237;28;20228;-71
2022/11/29 07:52:33;;;;;;;21.20;14.13;;;8.00;99.90;;;;;;5115025;28;20623;-71
2022/11/29 07:54:58;;;;;;;25.47;14.90;;;8.00;99.90;;;;;;5114538;28;20178;-70
2022/11/29 07:57:24;;;;;;;25.57;14.53;;;8.00;99.90;;;;;;5113674;28;20677;-71
2022/11/29 07:59:49;;;;;;;25.03;14.43;;;7.90;99.90;;;;;;5114357;28;20175;-70
2022/11/29 08:02:25;;;;;;;26.47;13.90;;;7.70;99.90;;;;;;5114345;28;20635;-71
2022/11/29 08:04:51;;;;;;;26.17;13.93;;;7.60;99.90;;;;;;5114681;28;20166;-71
2022/11/29 08:07:20;;;;;;;25.33;14.10;;;7.60;99.90;;;;;;5114914;28;20182;-71
2022/11/29 08:09:45;;;;;;;42.37;14.23;;;7.50;99.90;;;;;;5114248;28;20718;-71
2022/11/29 08:12:11;;;;;;;23.40;14.07;;;7.30;99.90;;;;;;5114619;28;20199;-71
2022/11/29 08:14:37;;;;;;;55.33;15.40;;;7.00;99.90;;;;;;5113201;28;20887;-72
2022/11/29 08:17:02;;;;;;;70.73;16.37;;;7.00;99.90;;;;;;5095152;28;20251;-71
2022/11/29 08:19:28;;;;;;;31.80;15.40;;;6.90;99.90;;;;;;5113757;28;20179;-71
2022/11/29 08:21:57;;;;;;;60.97;18.87;;;7.10;99.90;;;;;;5114170;28;20171;-71
2022/11/29 08:24:22;;;;;;;48.03;16.30;;;7.10;99.90;;;;;;5114340;28;20175;-71
2022/11/29 08:26:48;;;;;;;49.83;16.77;;;7.10;99.90;;;;;;5113900;28;20220;-72
2022/11/29 08:29:14;;;;;;;40.67;16.13;;;6.80;99.90;;;;;;5113708;28;20167;-71
2022/11/29 08:31:40;;;;;;;55.30;17.17;;;6.80;99.90;;;;;;5113804;28;20199;-71
2022/11/29 08:34:06;;;;;;;28.07;15.97;;;6.70;99.90;;;;;;5095226;28;20690;-72
2022/11/29 08:36:33;;;;;;;30.10;16.17;;;6.70;99.90;;;;;;5114035;28;20198;-71
2022/11/29 08:39:01;;;;;;;33.13;17.33;;;6.80;99.90;;;;;;5113660;28;20171;-71
2022/11/29 08:41:28;;;;;;;51.37;17.37;;;6.90;99.90;;;;;;5113208;28;20308;-72
2022/11/29 08:43:54;;;;;;;59.20;28.03;;;7.00;99.90;;;;;;5113643;28;20240;-71
2022/11/29 08:46:19;;;;;;;38.67;19.93;;;7.10;99.90;;;;;;5110082;28;20682;-71
2022/11/29 08:48:46;;;;;;;30.80;15.37;;;7.10;99.90;;;;;;5087920;28;20196;-69
2022/11/29 08:51:12;;;;;;;35.37;15.20;;;7.00;99.90;;;;;;5092948;28;20190;-67
2022/11/29 08:53:40;;;;;;;32.40;15.40;;;6.90;99.90;;;;;;5093365;28;20168;-68
2022/11/29 08:56:10;;;;;;;61.63;17.97;;;6.80;99.90;;;;;;5093154;28;20634;-68
2022/11/29 08:58:37;;;;;;;92.23;16.03;;;7.00;99.90;;;;;;5092825;28;20204;-69
2022/11/29 09:01:03;;;;;;;34.80;15.23;;;6.80;99.90;;;;;;5092623;28;20163;-70
2022/11/29 09:06:14;;;;;;;31.37;14.17;;;6.70;99.90;;;;;;5092945;28;20175;-71
2022/11/29 09:08:44;;;;;;;45.57;16.10;;;6.70;99.90;;;;;;5092605;28;20172;-68
2022/11/29 09:11:16;;;;;;;35.93;16.87;;;6.80;99.90;;;;;;5092014;28;20266;-71
2022/11/29 09:13:43;;;;;;;44.50;17.70;;;7.10;99.90;;;;;;5092830;28;20163;-71
2022/11/29 09:16:11;;;;;;;42.17;18.37;;;7.20;99.90;;;;;;5092600;28;20251;-70
2022/11/29 09:18:38;;;;;;;41.43;17.97;;;7.10;99.90;;;;;;5093182;28;20203;-70
2022/11/29 09:21:12;;;;;;;47.47;16.37;;;7.20;99.90;;;;;;5093423;28;20163;-72
2022/11/29 09:23:39;;;;;;;32.67;16.00;;;7.40;99.90;;;;;;5092923;28;20253;-69
2022/11/29 09:26:06;;;;;;;28.03;14.63;;;7.50;99.90;;;;;;5092343;28;20172;-69
2022/11/29 09:28:33;;;;;;;82.53;18.17;;;7.30;99.90;;;;;;5074298;28;20528;-70
2022/11/29 09:31:06;;;;;;;42.93;15.80;;;7.30;99.90;;;;;;5092456;28;20171;-69
2022/11/29 09:33:32;;;;;;;27.17;14.47;;;7.60;99.90;;;;;;5092536;28;20223;-71
2022/11/29 09:35:58;;;;;;;26.77;14.17;;;7.70;99.90;;;;;;5092978;28;20172;-71
2022/11/29 09:38:24;;;;;;;27.50;15.80;;;7.80;99.90;;;;;;5093087;28;20211;-71
2022/11/29 09:41:01;;;;;;;25.63;14.10;;;7.90;99.90;;;;;;5092027;28;20175;-70
2022/11/29 09:43:52;;;;;;;30.60;15.00;;;8.00;99.90;;;;;;5074865;28;20175;-70
2022/11/29 09:46:20;;;;;;;33.23;14.90;;;8.10;99.90;;;;;;5092198;28;20651;-71
2022/11/29 09:49:23;;;;;;;27.80;15.30;;;7.90;99.90;;;;;;5092782;28;20191;-70
2022/11/29 09:52:04;;;;;;;28.60;14.90;;;8.00;99.90;;;;;;5092394;28;20186;-70
2022/11/29 09:54:35;;;;;;;24.30;14.47;;;8.00;99.90;;;;;;5092410;28;20163;-70
2022/11/29 09:57:04;;;;;;;26.57;13.63;;;8.00;99.90;;;;;;5092193;28;20234;-70
2022/11/29 09:59:36;;;;;;;28.60;15.63;;;8.00;99.90;;;;;;5073813;28;20197;-70
2022/11/29 10:02:07;;;;;;;28.03;15.20;;;8.10;99.90;;;;;;5092039;28;20175;-70
2022/11/29 10:04:39;;;;;;;29.00;16.70;;;8.00;99.90;;;;;;5092658;28;20250;-69
2022/11/29 10:07:33;;;;;;;35.83;19.63;;;7.90;99.90;;;;;;5092075;28;20163;-70
2022/11/29 10:10:19;;;;;;;33.70;17.63;;;7.70;99.90;;;;;;5091635;28;20263;-70
2022/11/29 10:12:55;;;;;;;30.53;18.93;;;7.80;99.90;;;;;;5092183;28;20179;-70
2022/11/29 10:15:26;;;;;;;29.70;17.87;;;8.00;99.90;;;;;;5074042;28;20172;-70
2022/11/29 10:18:03;;;;;;;33.33;19.07;;;8.20;99.90;;;;;;5092430;28;20203;-70
2022/11/29 10:20:48;;;;;;;30.90;17.43;;;8.10;99.90;;;;;;5092109;28;20639;-70
2022/11/29 10:23:22;;;;;;;32.50;17.60;;;8.10;99.90;;;;;;5073447;28;20172;-71
2022/11/29 10:25:53;;;;;;;26.43;15.73;;;8.30;99.90;;;;;;5092602;28;20171;-70
2022/11/29 10:28:31;;;;;;;26.73;15.83;;;8.50;99.90;;;;;;5092419;28;20172;-70
2022/11/29 10:31:11;;;;;;;29.27;16.17;;;8.50;99.90;;;;;;5092416;28;20258;-70
2022/11/29 10:33:40;;;;;;;35.37;17.20;;;8.70;99.90;;;;;;5092266;28;20215;-70
2022/11/29 10:36:41;;;;;;;27.60;16.57;;;8.90;99.90;;;;;;5074034;28;20199;-70
2022/11/29 10:39:16;;;;;;;28.23;17.13;;;8.90;99.90;;;;;;5080983;28;20274;-70
2022/11/29 10:41:42;;;;;;;30.33;16.43;;;8.90;99.90;;;;;;5095536;28;20175;-71
2022/11/29 10:44:13;;;;;;;36.10;18.17;;;8.80;99.90;;;;;;5096189;28;20541;-73
2022/11/29 10:46:42;;;;;;;35.23;18.03;;;8.90;99.90;;;;;;5096107;28;20247;-70
2022/11/29 10:49:19;;;;;;;29.97;16.90;;;8.80;99.90;;;;;;5095706;28;20176;-70
2022/11/29 10:51:45;;;;;;;27.67;15.33;;;8.60;99.90;;;;;;5095413;28;20172;-70
2022/11/29 10:54:37;;;;;;;32.00;15.87;;;8.70;99.90;;;;;;5076926;28;20191;-72
2022/11/29 10:57:12;;;;;;;28.13;15.47;;;8.50;99.90;;;;;;5077113;28;20279;-71
2022/11/29 10:59:37;;;;;;;28.80;15.47;;;8.70;99.90;;;;;;5095917;28;20179;-70
2022/11/29 11:02:05;;;;;;;28.03;15.27;;;9.00;99.90;;;;;;5095460;28;20233;-71
2022/11/29 11:04:41;;;;;;;29.13;18.07;;;9.10;99.90;;;;;;5095228;28;20164;-70
2022/11/29 11:07:22;;;;;;;33.87;16.23;;;9.10;99.90;;;;;;5095226;28;20175;-70
2022/11/29 11:09:50;;;;;;;27.07;15.67;;;8.90;99.90;;;;;;5095011;28;20267;-70
2022/11/29 11:12:19;;;;;;;24.00;14.90;;;9.00;99.90;;;;;;5095017;28;20172;-70
2022/11/29 11:14:50;;;;;;;30.10;15.07;;;9.10;99.90;;;;;;5095321;28;20221;-70
2022/11/29 11:17:31;;;;;;;35.50;16.67;;;9.10;99.90;;;;;;5095612;28;20202;-70
2022/11/29 11:20:20;;;;;;;27.40;15.97;;;9.20;99.90;;;;;;5076985;28;20176;-70
2022/11/29 11:22:58;;;;;;;25.80;16.03;;;9.10;99.90;;;;;;5094879;28;20163;-71
2022/11/29 11:25:42;;;;;;;57.87;38.63;;;9.10;99.90;;;;;;5076590;28;20168;-69
2022/11/29 11:28:20;;;;;;;26.37;16.97;;;9.20;99.90;;;;;;5094891;28;20703;-69
2022/11/29 11:30:56;;;;;;;26.23;17.97;;;9.20;99.90;;;;;;5094680;28;20258;-69
2022/11/29 11:33:32;;;;;;;33.47;19.40;;;9.10;99.90;;;;;;5094054;28;20306;-69
2022/11/29 11:36:20;;;;;;;25.33;15.77;;;9.00;99.90;;;;;;5094264;28;20187;-69
2022/11/29 11:39:11;;;;;;;22.17;15.03;;;9.00;99.90;;;;;;5094143;28;20219;-69
2022/11/29 11:44:37;;;;;;;30.23;16.43;;;9.00;99.90;;;;;;5095240;28;20567;-70
2022/11/29 11:47:14;;;;;;;35.30;18.53;;;9.00;99.90;;;;;;5075936;28;20215;-71
2022/11/29 11:49:52;;;;;;;22.97;15.70;;;9.10;99.90;;;;;;5093805;28;20168;-71
2022/11/29 11:52:43;;;;;;;22.90;16.23;;;8.90;99.90;;;;;;5093815;28;20506;-70
2022/11/29 11:55:20;;;;;;;26.70;16.30;;;8.90;99.90;;;;;;5056486;28;20231;-70
2022/11/29 11:58:17;;;;;;;22.33;14.83;;;8.90;99.90;;;;;;5094078;28;20203;-70
2022/11/29 12:00:53;;;;;;;28.60;17.17;;;8.90;99.90;;;;;;5093584;28;20209;-72
2022/11/29 12:03:57;;;;;;;22.33;14.07;;;8.90;99.90;;;;;;5093874;28;20168;-71
2022/11/29 12:06:41;;;;;;;21.87;14.30;;;8.70;99.90;;;;;;5093041;28;20190;-69
2022/11/29 12:09:23;;;;;;;29.73;14.93;;;8.60;99.90;;;;;;5094150;28;20203;-70
2022/11/29 12:12:03;;;;;;;22.37;13.87;;;8.60;99.90;;;;;;5093615;28;20167;-70
2022/11/29 12:14:35;;;;;;;23.47;14.87;;;8.90;99.90;;;;;;5094186;28;20635;-67
2022/11/29 12:17:08;;;;;;;25.93;15.33;;;9.00;99.90;;;;;;5093510;28;20199;-68
2022/11/29 12:19:45;;;;;;;21.60;14.60;;;8.90;99.90;;;;;;5092774;28;20183;-69
2022/11/29 12:22:17;;;;;;;21.17;13.70;;;9.00;99.90;;;;;;5094476;28;20206;-69
2022/11/29 12:24:54;;;;;;;24.10;13.40;;;8.80;99.90;;;;;;5093765;28;20160;-71
2022/11/29 12:27:25;;;;;;;23.97;13.00;;;8.90;99.90;;;;;;5075203;28;20171;-70
2022/11/29 12:29:51;;;;;;;27.23;17.80;;;9.00;99.90;;;;;;5093751;28;20175;-70
2022/11/29 12:32:25;;;;;;;23.87;13.60;;;9.00;99.90;;;;;;5075488;28;20176;-72
2022/11/29 12:35:12;;;;;;;19.13;13.20;;;9.00;99.90;;;;;;5052988;28;20647;-72
2022/11/29 12:37:58;;;;;;;27.30;13.53;;;8.80;99.90;;;;;;5053014;28;20251;-72
2022/11/29 12:41:15;;;;;;;21.67;13.87;;;9.00;99.90;;;;;;5045790;28;20268;-71
2022/11/29 12:43:57;;;;;;;20.57;13.40;;;8.90;99.90;;;;;;5011105;28;20278;-71
2022/11/29 12:46:52;;;;;;;19.50;12.67;;;8.90;99.90;;;;;;5012090;28;20278;-68
2022/11/29 12:49:32;;;;;;;18.43;11.70;;;8.90;99.90;;;;;;5010484;28;20265;-69
2022/11/29 12:52:00;;;;;;;19.90;13.73;;;8.80;99.90;;;;;;5011604;28;20261;-70
2022/11/29 12:54:49;;;;;;;19.20;11.60;;;8.80;99.90;;;;;;5011303;28;20607;-70
2022/11/29 12:57:48;;;;;;;19.00;12.30;;;8.80;99.90;;;;;;5009598;28;20640;-69
2022/11/29 13:00:18;;;;;;;17.67;11.67;;;8.70;99.90;;;;;;4993870;28;20197;-70
2022/11/29 13:02:57;;;;;;;14.83;10.67;;;8.60;99.90;;;;;;5009912;28;20197;-68
2022/11/29 13:06:00;;;;;;;15.77;10.80;;;8.50;99.90;;;;;;5010785;28;20240;-70
2022/11/29 13:08:49;;;;;;;22.87;19.80;;;8.60;99.90;;;;;;5010827;28;20256;-69
2022/11/29 13:11:26;;;;;;;17.77;14.90;;;8.60;99.90;;;;;;5011452;28;20278;-69
2022/11/29 13:14:11;;;;;;;19.17;12.40;;;8.80;99.90;;;;;;5011192;28;20184;-69
2022/11/29 13:16:52;;;;;;;27.40;17.10;;;9.00;99.90;;;;;;5010965;28;20677;-69
2022/11/29 13:19:33;;;;;;;24.03;21.33;;;8.90;99.90;;;;;;5037258;28;20609;-69
2022/11/29 13:22:08;;;;;;;15.73;11.90;;;8.90;99.90;;;;;;5052212;28;20177;-70
2022/11/29 13:24:40;;;;;;;17.13;11.70;;;8.90;99.90;;;;;;5051345;28;20210;-70
2022/11/29 13:27:06;;;;;;;41.70;35.10;;;8.90;99.90;;;;;;5051096;28;20173;-70
2022/11/29 13:29:33;;;;;;;16.37;13.43;;;9.10;99.90;;;;;;5052948;28;20559;-70
2022/11/29 13:32:00;;;;;;;14.83;11.43;;;9.20;99.90;;;;;;5050627;28;20461;-70
2022/11/29 13:34:43;;;;;;;15.93;12.07;;;9.20;99.90;;;;;;5086324;28;20228;-71
2022/11/29 13:37:19;;;;;;;19.13;13.20;;;9.20;99.90;;;;;;5093360;28;20249;-70